Weather reports worldwide

Advertisment
Feldberg/Schwarzwald, Germany (10908): temperature & dewpoint: 07.07.2020 06:00:00 - 13.07.2020 06:00:00 (CEST)Feldberg/Schwarzwald, Germany (10908): temperature 5cm & temperature -5cm: 07.07.2020 06:00:00 - 13.07.2020 06:00:00 (CEST)Feldberg/Schwarzwald, Germany (10908): temperature -20cm & temperature -100cm: 07.07.2020 06:00:00 - 13.07.2020 06:00:00 (CEST)Feldberg/Schwarzwald, Germany (10908): wind speed & gusts: 07.07.2020 06:00:00 - 13.07.2020 06:00:00 (CEST)Feldberg/Schwarzwald, Germany (10908): wind direction: 07.07.2020 06:00:00 - 13.07.2020 06:00:00 (CEST)Feldberg/Schwarzwald, Germany (10908): visibility: 07.07.2020 06:00:00 - 13.07.2020 06:00:00 (CEST)Feldberg/Schwarzwald, Germany (10908): sunshine duration: 07.07.2020 06:00:00 - 13.07.2020 06:00:00 (CEST)Feldberg/Schwarzwald, Germany (10908): precipitation: 07.07.2020 06:00:00 - 13.07.2020 06:00:00 (CEST)
Date & Time tt [°C] td [°C] tt 5cm [°C] tt -5cm [°C] tt -20cm [°C] tt -100cm [°C] ff [km/h] ff [kn] fx [km/h] fx [kn] dd vv [km] sd [min] rr [mm]
13.07.2020 06:00:00 8,5 2,6 6,9 9,8 14,8 10,2 47 25 51 28 E 64 0 0,0
13.07.2020 05:00:00 8,5 3,0 7,0 10,3 15,2 10,2 44 24 50 27 E 58 0 0,0
13.07.2020 04:00:00 8,7 3,5 7,1 10,8 15,6 10,2 44 24 51 27 E 59 0 0,0
13.07.2020 03:00:00 8,8 3,6 7,4 11,4 16,0 10,2 42 23 50 27 E 71 0 0,0
13.07.2020 02:00:00 9,0 3,7 7,5 12,2 16,4 10,2 42 23 51 27 E 66 0 0,0
13.07.2020 01:00:00 9,2 4,3 7,7 13,1 16,7 10,2 41 22 50 27 E 75 0 0,0
13.07.2020 00:00:00 9,4 4,7 8,0 14,2 17,1 10,2 41 22 51 28 E 65 0 0,0
12.07.2020 23:00:00 9,9 4,5 8,6 15,6 17,3 10,2 42 23 53 28 E 56 0 0,0
12.07.2020 22:00:00 11,1 4,1 9,4 17,4 17,4 10,2 32 17 40 22 E 57 11 0,0
12.07.2020 21:00:00 12,4 3,7 11,0 19,6 17,4 10,2 29 16 39 21 E 58 50 0,0
12.07.2020 20:00:00 13,4 3,1 12,6 22,0 17,1 10,2 23 13 33 18 E 56 58 0,0
12.07.2020 19:00:00 13,8 3,4 14,3 25,2 16,6 10,2 23 13 30 16 E 48 60 0,0
12.07.2020 18:00:00 14,3 3,8 18,4 26,3 16,0 10,2 17 9 32 17 E 75 41 0,0
12.07.2020 17:00:00 14,5 3,7 18,0 28,0 15,2 10,1 11 6 29 16 ENE 63 59 0,0
12.07.2020 16:00:00 14,3 3,4 20,4 26,9 14,5 10,1 14 8 32 17 E 56 51 0,0
12.07.2020 15:00:00 14,1 4,2 18,6 25,9 13,9 10,1 11 6 31 17 ENE 55 58 0,0
12.07.2020 14:00:00 12,9 3,5 17,9 23,9 13,3 10,1 16 8 31 17 NE 46 43 0,0
12.07.2020 13:00:00 12,3 4,0 19,0 21,9 12,9 10,1 13 7 30 16 E 59 60 0,0
12.07.2020 12:00:00 11,6 3,3 17,7 18,2 12,7 10,1 14 8 41 22 E 65 56 0,0
12.07.2020 11:00:00 10,1 3,7 15,5 15,5 12,6 10,1 19 11 40 22 ENE 59 58 0,0
12.07.2020 10:00:00 9,7 3,4 13,3 12,8 12,7 10,1 27 14 45 25 ENE 75 60 0,0
12.07.2020 09:00:00 8,7 2,7 11,2 10,7 12,8 10,1 24 13 35 19 ENE 67 60 0,0
12.07.2020 08:00:00 8,1 2,6 9,3 8,9 13,1 10,1 25 14 - - E 46 60 0,0
12.07.2020 07:00:00 7,5 2,3 7,1 8,1 13,4 10,1 30 16 39 21 E 54 44 0,0
12.07.2020 06:00:00 7,1 2,1 5,6 8,2 13,8 10,1 32 17 39 21 E 75 0 0,0
12.07.2020 05:00:00 7,2 2,2 5,4 8,7 14,1 10,1 32 17 39 21 E 68 0 0,0
12.07.2020 04:00:00 7,5 1,5 5,8 9,2 14,5 10,1 31 17 36 19 E 59 0 0,0
12.07.2020 03:00:00 7,5 2,0 5,7 9,7 14,8 10,1 32 17 40 22 E 73 0 0,0
12.07.2020 02:00:00 7,4 1,9 5,8 10,4 15,2 10,0 35 19 42 23 E 61 0 0,0
12.07.2020 01:00:00 7,9 1,8 6,2 11,3 15,5 10,0 34 18 44 24 E 70 0 0,0
12.07.2020 00:00:00 8,2 2,6 6,7 12,5 15,8 10,0 31 17 37 20 E 61 0 0,0
11.07.2020 23:00:00 8,9 2,6 7,7 13,6 16,0 10,0 21 11 30 16 NE 70 0 0,0
11.07.2020 22:00:00 9,2 2,2 8,3 14,9 16,1 10,0 19 10 24 13 N 63 13 0,0
11.07.2020 21:00:00 9,8 2,0 9,5 16,7 16,1 10,0 19 11 27 14 N 64 60 0,0
11.07.2020 20:00:00 10,3 2,0 10,5 18,4 16,0 10,0 22 12 28 15 N 52 58 0,0
11.07.2020 19:00:00 10,1 2,3 10,1 20,8 15,7 10,0 17 9 34 18 N 66 41 0,0
11.07.2020 18:00:00 10,7 2,7 14,0 21,8 15,3 10,0 20 11 31 17 N 71 50 0,0
11.07.2020 17:00:00 10,4 3,5 12,8 22,1 14,9 10,0 20 11 32 17 NNW 67 26 0,0
11.07.2020 16:00:00 10,8 3,9 16,0 22,9 14,5 10,0 19 11 34 18 NNE 61 49 0,0
11.07.2020 15:00:00 10,8 3,9 17,0 21,6 14,1 10,0 21 11 39 21 N 48 50 0,0
11.07.2020 14:00:00 9,9 4,4 14,2 19,4 14,0 10,0 22 12 35 19 N 58 39 0,0
11.07.2020 13:00:00 9,5 6,6 14,9 16,1 13,9 9,9 21 11 30 16 NNW 54 19 0,0
11.07.2020 12:00:00 8,7 7,5 11,6 14,2 14,0 9,9 17 9 31 17 N 34 6 0,0
11.07.2020 11:00:00 7,9 7,0 10,7 13,2 14,1 9,9 24 13 35 19 N 11 2 0,0
11.07.2020 10:00:00 7,9 7,7 9,6 12,9 14,2 9,9 19 10 29 16 N - 2 0,0
11.07.2020 09:00:00 8,1 8,0 9,2 12,6 14,4 9,9 19 10 33 18 NNW 0,1 10 0,0
11.07.2020 08:00:00 7,9 7,7 9,9 11,5 14,6 9,9 18 10 26 14 NNW 0,1 5 0,0
11.07.2020 07:00:00 7,6 7,1 7,4 11,6 14,8 9,9 11 6 22 12 N 0,5 0 0,0
11.07.2020 06:00:00 7,9 7,4 7,9 12,1 15,1 9,9 15 8 22 12 NW 26 0 0,1
11.07.2020 05:00:00 8,2 8,0 8,6 12,5 15,3 9,9 11 6 17 9 NNW 0,1 0 0,4
11.07.2020 04:00:00 8,9 8,6 9,1 12,8 15,5 9,9 6 3 17 9 N - 0 0,4
11.07.2020 03:00:00 9,6 7,3 9,1 13,3 15,8 9,9 9 5 18 10 NW 28 0 0,0
11.07.2020 02:00:00 9,2 9,0 9,6 13,7 16,0 9,9 13 7 18 10 N 0,1 0 0,0
11.07.2020 01:00:00 9,3 9,1 9,6 14,0 16,3 9,8 14 8 22 12 N 0,1 0 0,0
11.07.2020 00:00:00 9,6 8,8 9,8 14,6 16,6 9,8 13 7 28 15 N 29 0 0,0
10.07.2020 23:00:00 10,0 9,3 10,3 15,1 16,8 9,8 20 11 34 19 N 22 0 0,0
10.07.2020 22:00:00 10,4 9,4 10,1 16,2 17,0 9,8 21 11 29 16 N 30 0 0,0
10.07.2020 21:00:00 10,8 9,8 11,3 17,5 17,1 9,8 19 11 33 18 N 31 0 0,0
10.07.2020 20:00:00 11,9 10,4 12,3 18,8 17,0 9,8 24 13 32 18 NNW 38 0 0,0
10.07.2020 19:00:00 13,1 10,8 13,9 20,3 16,9 9,8 18 10 31 17 NNW 54 0 0,0
10.07.2020 18:00:00 14,3 10,6 15,4 22,0 16,7 9,8 19 11 58 32 NNW 55 19 0,0
10.07.2020 17:00:00 15,9 8,2 17,2 21,9 16,5 9,8 42 23 61 33 W 45 20 0,0
10.07.2020 16:00:00 15,7 10,0 17,5 22,0 16,2 9,8 39 21 58 31 W 48 11 0,0
10.07.2020 15:00:00 15,5 11,0 17,4 22,5 15,9 9,8 39 21 64 34 WSW 49 28 0,0
10.07.2020 14:00:00 15,2 10,5 18,8 22,0 15,6 9,8 44 24 64 34 WSW 62 30 0,0
10.07.2020 13:00:00 15,2 9,7 17,3 22,2 15,3 9,8 37 20 64 35 WSW 47 48 0,0
10.07.2020 12:00:00 15,8 10,0 19,8 20,2 15,2 9,8 47 26 75 41 WSW 37 51 0,0
10.07.2020 11:00:00 15,2 10,5 19,1 19,0 15,1 9,8 49 26 76 41 WSW 45 58 0,0
10.07.2020 10:00:00 14,8 10,2 17,4 17,4 15,1 9,7 49 26 74 40 WSW 41 60 0,0
10.07.2020 09:00:00 15,1 9,3 16,7 15,6 15,2 9,7 41 22 58 32 WSW 61 60 0,0
10.07.2020 08:00:00 15,0 8,5 15,3 14,5 15,4 9,7 41 22 58 31 SW 46 60 0,0
10.07.2020 07:00:00 15,7 7,7 14,6 13,9 15,6 9,7 46 25 58 31 WSW 63 38 0,0
10.07.2020 06:00:00 15,8 7,5 13,5 14,0 15,9 9,7 41 22 56 30 WSW 56 0 0,0
10.07.2020 05:00:00 16,4 7,2 13,9 14,3 16,1 9,7 46 25 56 31 WSW 63 0 0,0
10.07.2020 04:00:00 15,8 7,5 13,9 14,6 16,4 9,7 46 25 58 31 SW 64 0 0,0
10.07.2020 03:00:00 16,7 7,3 14,6 15,0 16,7 9,7 42 23 55 30 SW 73 0 0,0
10.07.2020 02:00:00 17,0 6,9 14,8 15,4 17,0 9,7 42 23 52 28 SW 70 0 0,0
10.07.2020 01:00:00 17,3 6,5 14,0 16,0 17,3 9,7 39 21 44 24 WSW 72 0 0,0
10.07.2020 00:00:00 17,4 7,2 14,7 16,7 17,5 9,7 37 20 44 24 WSW 62 0 0,0
09.07.2020 23:00:00 17,2 7,7 14,6 17,7 17,7 9,7 35 19 42 23 WSW 74 0 0,0
09.07.2020 22:00:00 16,9 7,7 14,1 19,2 17,8 9,7 29 16 35 19 WSW 54 12 0,0
09.07.2020 21:00:00 17,6 7,5 15,9 21,0 17,8 9,7 29 16 37 20 W 52 60 0,0
09.07.2020 20:00:00 18,1 7,6 17,7 22,7 17,6 9,7 25 14 44 24 W 64 60 0,0
09.07.2020 19:00:00 18,4 7,4 19,1 25,2 17,2 9,7 29 16 49 26 WSW 39 60 0,0
09.07.2020 18:00:00 18,4 5,4 20,6 26,5 16,7 9,7 38 21 53 29 W 53 60 0,0
09.07.2020 17:00:00 18,2 5,2 21,5 27,4 16,1 9,7 36 19 65 35 W 55 60 0,0
09.07.2020 16:00:00 18,0 7,1 21,9 27,8 15,5 9,7 36 19 49 27 W 52 60 0,0
09.07.2020 15:00:00 18,5 8,2 22,8 27,0 14,9 9,7 23 12 41 22 WSW 71 60 0,0
09.07.2020 14:00:00 17,6 6,8 23,2 25,3 14,4 9,7 23 13 38 20 W 56 59 0,0
09.07.2020 13:00:00 16,6 8,2 20,6 22,8 13,9 9,7 16 8 34 19 W 73 36 0,0
09.07.2020 12:00:00 15,4 8,7 17,8 21,9 13,6 9,7 21 12 36 19 W 73 46 0,0
09.07.2020 11:00:00 15,0 8,0 19,1 19,6 13,4 9,7 23 13 37 20 WSW 42 59 0,0
09.07.2020 10:00:00 14,5 8,7 18,4 16,6 13,4 9,7 14 8 31 17 SW 42 60 0,0
09.07.2020 09:00:00 14,0 7,6 16,5 13,6 13,5 9,7 26 14 35 19 SW 65 55 0,0
09.07.2020 08:00:00 13,6 7,1 13,7 11,9 13,7 9,7 29 16 37 20 WSW 39 21 0,0
09.07.2020 07:00:00 13,4 6,4 12,1 11,4 13,9 9,7 31 17 38 20 WSW 47 16 0,0
09.07.2020 06:00:00 13,1 6,7 10,6 11,4 14,2 9,7 29 16 35 19 SW 60 0 0,0
09.07.2020 05:00:00 13,2 6,4 10,9 11,7 14,5 9,7 27 14 35 19 WSW 51 0 0,0
09.07.2020 04:00:00 13,6 6,2 10,9 12,0 14,8 9,7 29 16 37 20 WSW 59 0 0,0
09.07.2020 03:00:00 13,3 6,5 10,6 12,4 15,1 9,7 31 17 35 19 SW 54 0 0,0
09.07.2020 02:00:00 13,1 6,7 10,5 13,0 15,4 9,7 27 14 30 16 WSW 47 0 0,0
09.07.2020 01:00:00 13,3 6,6 11,2 13,7 15,7 9,7 26 14 35 19 W 53 0 0,0
09.07.2020 00:00:00 13,2 6,7 11,5 14,5 16,0 9,7 27 15 36 19 W 68 0 0,0
08.07.2020 23:00:00 13,2 7,0 11,0 15,7 16,2 9,7 24 13 30 16 WSW 57 0 0,0
08.07.2020 22:00:00 13,2 7,4 11,6 17,2 16,3 9,7 22 12 31 17 W 54 0 0,0
08.07.2020 21:00:00 13,3 8,1 12,2 19,2 16,2 9,7 22 12 39 21 W 55 25 0,0
08.07.2020 20:00:00 14,0 8,5 14,2 21,1 15,9 9,7 27 15 41 22 W 56 27 0,0
08.07.2020 19:00:00 14,3 7,7 14,4 23,8 15,5 9,7 26 14 37 20 WSW 51 50 0,0
08.07.2020 18:00:00 14,6 7,4 18,4 25,2 14,9 9,7 26 14 46 25 W 41 51 0,0
08.07.2020 17:00:00 15,4 6,6 19,7 26,4 14,3 9,7 24 13 40 22 WNW 75 55 0,0
08.07.2020 16:00:00 14,5 6,2 18,8 26,0 13,6 9,7 19 10 36 19 W 48 55 0,0
08.07.2020 15:00:00 14,6 6,7 21,3 24,8 12,9 9,7 14 8 35 19 W 67 60 0,0
08.07.2020 14:00:00 13,6 5,7 17,3 23,0 12,3 9,7 24 13 33 18 W 25 49 0,0
08.07.2020 13:00:00 13,3 5,9 18,7 22,1 11,8 9,7 13 7 22 12 W 36 60 0,0
08.07.2020 12:00:00 12,3 6,4 17,2 18,9 11,5 9,7 16 8 29 15 WSW 34 60 0,0
08.07.2020 11:00:00 11,8 4,3 16,4 15,9 11,4 9,7 14 8 26 14 WSW 39 60 0,0
08.07.2020 10:00:00 10,6 4,6 14,3 12,9 11,4 9,7 20 11 40 21 WSW 75 60 0,0
08.07.2020 09:00:00 9,8 3,7 11,9 10,5 11,6 9,7 28 15 40 21 WSW 65 60 0,0
08.07.2020 08:00:00 9,3 4,2 10,1 8,8 11,8 9,7 23 12 31 17 W 49 60 0,0
08.07.2020 07:00:00 8,7 4,2 8,0 7,9 12,0 9,7 23 13 29 16 WSW 45 48 0,0
08.07.2020 06:00:00 9,0 4,1 6,8 7,9 12,3 9,7 24 13 29 15 WSW 52 0 0,0
08.07.2020 05:00:00 9,2 4,1 6,4 8,2 12,6 9,7 22 12 26 14 W 49 0 0,0
08.07.2020 04:00:00 9,2 4,5 6,4 8,6 12,9 9,7 19 10 26 14 WNW 51 0 0,0
08.07.2020 03:00:00 9,6 4,6 6,9 9,1 13,3 9,7 22 12 31 17 WSW 52 0 0,0
08.07.2020 02:00:00 9,7 4,9 7,1 9,6 13,6 9,7 24 13 27 14 SW 49 0 0,0
08.07.2020 01:00:00 9,7 4,7 7,2 10,3 13,9 9,7 19 10 23 12 WSW 45 0 0,0
08.07.2020 00:00:00 9,8 4,6 6,4 11,2 14,2 9,7 14 8 17 9 W 64 0 0,0
07.07.2020 23:00:00 10,0 4,2 6,5 12,5 14,4 9,7 13 7 14 8 W 59 0 0,0
07.07.2020 22:00:00 10,0 4,0 7,0 14,1 14,5 9,7 11 6 16 8 NW 45 14 0,0
07.07.2020 21:00:00 10,8 4,0 10,2 16,0 14,4 9,7 12 7 21 12 NNW 62 60 0,0
07.07.2020 20:00:00 11,9 4,2 11,7 17,8 14,2 9,7 16 9 26 14 WNW 38 60 0,0
07.07.2020 19:00:00 11,8 3,2 12,4 20,9 13,7 9,7 18 10 23 13 WNW 48 60 0,0
07.07.2020 18:00:00 12,0 4,4 15,4 22,4 13,2 9,7 13 7 26 14 N 48 60 0,0
07.07.2020 17:00:00 12,2 5,1 17,2 22,7 12,6 9,7 11 6 21 12 N 41 60 0,0
07.07.2020 16:00:00 11,2 4,8 17,1 22,1 12,0 9,7 12 7 23 12 NNE 36 58 0,0
07.07.2020 15:00:00 10,5 5,0 12,9 21,3 11,4 9,7 14 8 30 16 NNE 52 48 0,0
07.07.2020 14:00:00 10,5 4,6 16,4 19,9 10,9 9,7 13 7 23 12 N 32 50 0,0
07.07.2020 13:00:00 9,9 4,1 13,0 18,9 10,4 9,7 10 6 23 12 N 46 55 0,0
07.07.2020 12:00:00 9,6 3,2 14,8 16,1 10,1 9,7 12 6 22 12 N 66 57 0,0
07.07.2020 11:00:00 8,9 1,7 10,9 14,1 9,9 9,7 6 4 15 8 NE 55 46 0,0
07.07.2020 10:00:00 7,9 0,7 12,0 11,0 9,9 9,6 9 5 21 11 ESE 60 60 0,0
07.07.2020 09:00:00 6,7 2,4 9,5 8,4 10,0 9,6 16 9 23 13 E 44 60 0,0
07.07.2020 08:00:00 5,9 3,2 7,2 6,3 10,2 9,6 18 10 26 14 E 38 60 0,0
07.07.2020 07:00:00 5,6 3,0 5,4 5,2 10,5 9,6 18 10 23 12 E 36 49 0,0
07.07.2020 06:00:00 4,9 3,0 2,4 5,2 10,8 9,6 16 9 21 12 NE 35 0 0,0

tt = temperature
td = dewpoint
tt 5cm = temperature 5cm
tt -5cm = temperature -5cm
tt -20cm = temperature -20cm
tt -100cm = temperature -100cm
ff = wind speed
fx = gusts
dd = wind direction
vv = visibility
sd = sunshine duration
rr = precipitation

Next stations